This is the latest recevied weather packets stored in our database for station/object MIDVIL-WX. If no packets are shown the sender has not sent any weather packets the latest 10 day(s).
| Time | Temp. | Humidity | Pressure | Rain* | Wind** | Luminosity | Snow |
|---|---|---|---|---|---|---|---|
| 1777792525 | 1.67° C | 66% | 987 hPa | 0 mm | - | - | - |
| 1777791652 | 1.67° C | 66% | 987 hPa | 0 mm | - | - | - |
| 1777790726 | 1.67° C | 65% | 987.9 hPa | 0 mm | - | - | - |
| 1777789841 | 2.22° C | 70% | 987.9 hPa | 0 mm | - | - | - |
| 1777788926 | 2.22° C | 70% | 987.9 hPa | 0 mm | - | - | - |
| 1777788059 | 2.22° C | 70% | 987.9 hPa | 0 mm | - | - | - |
| 1777787126 | 2.22° C | 69% | 988.4 hPa | 0 mm | - | - | - |
| 1777785325 | 2.22° C | 70% | 988.7 hPa | 0 mm | - | - | - |
| 1777784452 | 2.22° C | 70% | 988.7 hPa | 0 mm | - | - | - |
| 1777783525 | 2.22° C | 69% | 988.9 hPa | 0 mm | - | - | - |
| 1777782645 | 2.22° C | 72% | 988.3 hPa | 0 mm | - | - | - |
| 1777781726 | 2.78° C | 72% | 988.3 hPa | 0 mm | - | - | - |
| 1777780854 | 2.78° C | 72% | 988.3 hPa | 0 mm | - | - | - |
| 1777779925 | 2.78° C | 64% | 989.5 hPa | 0 mm | - | - | - |
| 1777779046 | 2.78° C | 66% | 989.6 hPa | 0 mm | - | - | - |
| 1777778125 | 3.33° C | 66% | 989.6 hPa | 0 mm | - | - | - |
| 1777777252 | 3.33° C | 66% | 989.6 hPa | 0 mm | - | - | - |
| 1777776325 | 3.89° C | 61% | 990.4 hPa | 0 mm | - | - | - |
| 1777775445 | 3.89° C | 66% | 990.1 hPa | 0 mm | - | - | - |
| 1777774526 | 3.89° C | 66% | 990 hPa | 0 mm | - | - | - |
| 1777773652 | 3.89° C | 66% | 990 hPa | 0 mm | - | - | - |
| 1777772725 | 4.44° C | 61% | 989.5 hPa | 0 mm | - | - | - |
| 1777771843 | 4.44° C | 61% | 989.5 hPa | 0 mm | - | - | - |
| 1777770925 | 5° C | 61% | 989.5 hPa | 0 mm | - | - | - |
| 1777770050 | 5° C | 61% | 989.5 hPa | 0 mm | - | - | - |
* Rain latest hour (hover to see other rain measurements)
** Current wind speed in m/s (hover to see current wind gust speed)